createdAt,value
2019-05-01T00:00:16.237Z,36.90
2019-05-01T00:02:57.402Z,37.20
2019-05-01T00:05:35.245Z,36.70
2019-05-01T00:08:12.493Z,36.33
2019-05-01T00:10:48.811Z,38.57
2019-05-01T00:13:25.254Z,38.40
2019-05-01T00:16:04.382Z,38.70
2019-05-01T00:18:40.573Z,37.10
2019-05-01T00:21:17.321Z,40.77
2019-05-01T00:23:56.449Z,39.03
2019-05-01T00:26:32.679Z,38.60
2019-05-01T00:29:09.256Z,40.23
2019-05-01T00:31:45.721Z,38.57
2019-05-01T00:34:22.042Z,41.00
2019-05-01T00:36:58.715Z,42.63
2019-05-01T00:39:35.025Z,39.00
2019-05-01T00:42:11.315Z,38.50
2019-05-01T00:44:47.558Z,39.23
2019-05-01T00:47:23.840Z,39.93
2019-05-01T00:50:00.091Z,38.10
2019-05-01T00:52:36.386Z,41.40
2019-05-01T00:55:30.983Z,42.47
2019-05-01T00:58:25.390Z,40.03
2019-05-01T01:01:19.507Z,39.73
2019-05-01T01:03:55.719Z,39.70
2019-05-01T01:06:31.964Z,40.73
2019-05-01T01:09:08.638Z,40.77
2019-05-01T01:11:44.973Z,39.73
2019-05-01T01:14:21.221Z,43.23
2019-05-01T01:16:57.435Z,36.67
2019-05-01T01:19:33.686Z,41.93
2019-05-01T01:22:10.030Z,40.80
2019-05-01T01:24:46.270Z,41.07
2019-05-01T01:27:22.795Z,40.47
2019-05-01T01:29:59.009Z,39.17
2019-05-01T01:32:35.338Z,40.80
2019-05-01T01:35:11.589Z,41.33
2019-05-01T01:37:48.151Z,39.37
2019-05-01T01:40:25.869Z,42.73
2019-05-01T01:43:06.431Z,44.17
2019-05-01T01:45:44.369Z,41.87
2019-05-01T01:48:20.720Z,42.63
2019-05-01T01:50:57.472Z,41.27
2019-05-01T01:53:34.199Z,38.53
2019-05-01T01:56:10.660Z,38.13
2019-05-01T01:58:47.182Z,37.70
2019-05-01T02:01:25.592Z,38.07
2019-05-01T02:04:03.483Z,33.90
2019-05-01T02:06:39.750Z,38.70
2019-05-01T02:09:16.100Z,37.40
2019-05-01T02:11:52.353Z,35.73
2019-05-01T02:14:28.530Z,36.80
2019-05-01T02:17:04.797Z,34.17
2019-05-01T02:19:41.011Z,31.83
2019-05-01T02:22:17.347Z,33.53
2019-05-01T02:24:53.628Z,34.60
2019-05-01T02:27:34.136Z,31.53
2019-05-01T02:30:11.987Z,31.53
2019-05-01T02:32:49.552Z,31.43
2019-05-01T02:35:30.206Z,33.67
2019-05-01T02:38:06.312Z,33.47
2019-05-01T02:40:51.636Z,31.80
2019-05-01T02:43:30.912Z,32.63
2019-05-01T02:46:09.081Z,30.83
2019-05-01T02:48:48.289Z,32.43
2019-05-01T02:51:25.732Z,30.77
2019-05-01T02:54:02.277Z,31.90
2019-05-01T02:56:48.594Z,32.97
2019-05-01T02:59:26.715Z,33.53
2019-05-01T03:02:03.475Z,34.67
2019-05-01T03:04:39.913Z,32.83
2019-05-01T03:07:17.497Z,34.70
2019-05-01T03:09:54.303Z,36.67
2019-05-01T03:12:31.397Z,35.53
2019-05-01T03:15:08.892Z,36.67
2019-05-01T03:18:03.423Z,35.27
2019-05-01T03:20:50.954Z,38.97
2019-05-01T03:23:29.251Z,39.93
2019-05-01T03:26:05.500Z,42.20
2019-05-01T03:28:42.158Z,45.07
2019-05-01T03:31:18.416Z,43.77
2019-05-01T03:33:54.620Z,43.43
2019-05-01T03:36:31.053Z,43.43
2019-05-01T03:39:07.401Z,43.57
2019-05-01T03:41:44.879Z,44.87
2019-05-01T03:44:21.173Z,47.97
2019-05-01T03:46:57.748Z,44.00
2019-05-01T03:49:34.274Z,44.77
2019-05-01T03:52:10.518Z,47.77
2019-05-01T03:54:46.928Z,46.87
2019-05-01T03:59:41.166Z,49.23
2019-05-01T04:02:33.170Z,49.13
2019-05-01T04:05:00.045Z,46.47
2019-05-01T04:07:36.793Z,44.93
2019-05-01T04:10:13.187Z,45.07
2019-05-01T04:12:49.524Z,42.27
2019-05-01T04:15:25.870Z,46.63
2019-05-01T04:18:04.075Z,39.70
2019-05-01T04:20:40.682Z,42.53
2019-05-01T04:23:17.464Z,45.47
2019-05-01T04:25:54.611Z,42.03
2019-05-01T04:28:35.810Z,37.00
2019-05-01T04:31:13.742Z,41.73
2019-05-01T04:33:54.505Z,38.00
2019-05-01T04:36:41.116Z,39.60
2019-05-01T04:39:17.660Z,39.73
2019-05-01T04:41:54.477Z,40.50
2019-05-01T04:44:30.703Z,39.50
2019-05-01T04:47:07.111Z,40.77
2019-05-01T04:49:43.852Z,38.40
2019-05-01T04:52:21.760Z,39.00
2019-05-01T04:54:59.546Z,41.57
2019-05-01T04:57:35.937Z,38.77
2019-05-01T05:00:12.432Z,39.17
2019-05-01T05:03:04.806Z,40.03
2019-05-01T05:05:40.626Z,40.97
2019-05-01T05:08:16.924Z,41.53
2019-05-01T05:10:54.787Z,41.27
2019-05-01T05:13:46.970Z,39.20
2019-05-01T05:16:24.440Z,43.80
2019-05-01T05:19:00.937Z,47.40
2019-05-01T05:21:37.419Z,47.47
2019-05-01T05:24:16.984Z,44.87
2019-05-01T05:26:53.583Z,45.73
2019-05-01T05:29:31.580Z,46.57
2019-05-01T05:32:08.656Z,48.70
2019-05-01T05:34:47.386Z,49.70
2019-05-01T05:37:37.206Z,46.37
2019-05-01T05:40:13.524Z,48.27
2019-05-01T05:42:50.119Z,46.37
2019-05-01T05:45:27.379Z,47.73
2019-05-01T05:48:04.695Z,47.37
2019-05-01T05:51:02.859Z,45.73
2019-05-01T05:53:41.958Z,47.67
2019-05-01T05:56:21.752Z,43.20
2019-05-01T05:59:02.170Z,41.73
2019-05-01T06:01:53.829Z,48.73
2019-05-01T06:04:33.115Z,45.80
2019-05-01T06:07:29.781Z,47.07
2019-05-01T06:10:10.655Z,48.17
2019-05-01T06:12:57.991Z,42.80
2019-05-01T06:15:45.536Z,47.13
2019-05-01T06:18:23.504Z,46.83
2019-05-01T06:21:13.338Z,42.47
2019-05-01T06:23:52.621Z,42.13
2019-05-01T06:26:37.100Z,43.97
2019-05-01T06:29:10.120Z,44.97
2019-05-01T06:31:46.540Z,39.13
2019-05-01T06:34:28.743Z,40.67
2019-05-01T06:37:04.019Z,38.93
2019-05-01T06:39:42.863Z,36.37
2019-05-01T06:42:20.376Z,38.50
2019-05-01T06:45:01.095Z,36.73
2019-05-01T06:47:56.996Z,37.47
2019-05-01T06:50:43.803Z,34.73
2019-05-01T06:53:20.475Z,36.23
2019-05-01T06:55:56.909Z,38.27
2019-05-01T06:58:34.698Z,38.70
2019-05-01T07:01:13.714Z,38.40
2019-05-01T07:04:02.806Z,37.23
2019-05-01T07:06:30.932Z,36.23
2019-05-01T07:09:11.931Z,38.53
2019-05-01T07:11:47.385Z,37.60
2019-05-01T07:14:26.605Z,36.53
2019-05-01T07:17:02.938Z,32.87
2019-05-01T07:19:59.004Z,30.23
2019-05-01T07:22:37.199Z,30.23
2019-05-01T07:25:13.727Z,25.90
2019-05-01T07:27:53.941Z,26.97
2019-05-01T07:30:35.270Z,22.63
2019-05-01T07:33:11.956Z,23.50
2019-05-01T07:35:49.577Z,21.67
2019-05-01T07:38:25.813Z,18.87
2019-05-01T07:41:03.321Z,17.30
2019-05-01T07:44:00.885Z,16.87
2019-05-01T07:46:54.292Z,18.03
2019-05-01T07:49:31.398Z,21.93
2019-05-01T07:52:07.661Z,23.53
2019-05-01T07:54:46.937Z,22.23
2019-05-01T07:57:23.070Z,23.03
2019-05-01T08:00:03.606Z,22.77
2019-05-01T08:02:37.744Z,21.00
2019-05-01T08:05:13.969Z,21.00
2019-05-01T08:07:50.224Z,22.13
2019-05-01T08:10:30.858Z,18.97
2019-05-01T08:13:04.420Z,21.13
2019-05-01T08:15:40.613Z,21.00
2019-05-01T08:18:18.584Z,21.90
2019-05-01T08:21:02.135Z,21.57
2019-05-01T08:23:38.476Z,23.93
2019-05-01T08:26:14.755Z,24.83
2019-05-01T08:29:02.876Z,25.10
2019-05-01T08:31:40.807Z,26.83
2019-05-01T08:34:29.767Z,23.03
2019-05-01T08:37:06.588Z,23.87
2019-05-01T08:39:44.275Z,24.70
2019-05-01T08:42:20.900Z,23.20
2019-05-01T08:45:05.048Z,25.43
2019-05-01T08:47:44.126Z,28.13
2019-05-01T08:50:24.855Z,27.50
2019-05-01T08:53:00.277Z,28.83
2019-05-01T08:55:39.905Z,28.90
2019-05-01T08:58:15.945Z,31.77
2019-05-01T09:00:52.445Z,30.40
2019-05-01T09:03:28.614Z,30.80
2019-05-01T09:06:04.962Z,30.43
2019-05-01T09:08:41.163Z,31.10
2019-05-01T09:11:17.425Z,30.93
2019-05-01T09:13:54.610Z,31.07
2019-05-01T09:16:31.408Z,29.40
2019-05-01T09:19:07.697Z,28.90
2019-05-01T09:21:43.888Z,29.37
2019-05-01T09:24:23.047Z,30.20
2019-05-01T09:27:18.556Z,31.43
2019-05-01T09:29:55.606Z,27.60
2019-05-01T09:32:31.932Z,29.37
2019-05-01T09:35:15.347Z,29.97
2019-05-01T09:37:46.016Z,30.23
2019-05-01T09:40:22.241Z,31.23
2019-05-01T09:42:59.459Z,29.30
2019-05-01T09:45:36.617Z,30.47
2019-05-01T09:48:12.886Z,29.80
2019-05-01T09:50:53.477Z,28.40
2019-05-01T09:53:34.309Z,29.47
2019-05-01T09:56:20.043Z,30.80
2019-05-01T09:58:56.299Z,31.00
2019-05-01T10:01:33.027Z,30.63
2019-05-01T10:04:09.397Z,30.73
2019-05-01T10:06:47.657Z,29.03
2019-05-01T10:09:26.500Z,28.70
2019-05-01T10:12:01.391Z,29.80
2019-05-01T10:14:37.647Z,30.37
2019-05-01T10:17:13.792Z,28.50
2019-05-01T10:19:50.316Z,29.93
2019-05-01T10:22:26.653Z,30.13
2019-05-01T10:25:02.937Z,30.70
2019-05-01T10:27:40.951Z,31.93
2019-05-01T10:30:31.621Z,31.67
2019-05-01T10:33:16.103Z,30.73
2019-05-01T10:36:17.810Z,31.37
2019-05-01T10:38:48.250Z,31.40
2019-05-01T10:41:24.611Z,32.53
2019-05-01T10:44:00.873Z,30.97
2019-05-01T10:46:37.094Z,32.40
2019-05-01T10:49:13.385Z,32.43
2019-05-01T10:51:49.621Z,34.07
2019-05-01T10:54:25.994Z,33.57
2019-05-01T10:57:03.361Z,34.83
2019-05-01T10:59:40.206Z,33.93
2019-05-01T11:02:18.077Z,34.10
2019-05-01T11:04:54.266Z,35.03
2019-05-01T11:07:30.497Z,34.03
2019-05-01T11:10:08.474Z,33.40
2019-05-01T11:12:44.798Z,34.30
2019-05-01T11:15:21.060Z,33.47
2019-05-01T11:17:57.264Z,34.50
2019-05-01T11:20:33.589Z,33.63
2019-05-01T11:23:11.877Z,33.57
2019-05-01T11:25:50.455Z,34.57
2019-05-01T11:28:26.967Z,35.10
2019-05-01T11:31:06.767Z,32.43
2019-05-01T11:33:47.290Z,31.53
2019-05-01T11:36:43.317Z,30.17
2019-05-01T11:39:26.844Z,33.67
2019-05-01T11:42:12.548Z,32.23
2019-05-01T11:44:47.110Z,31.13
2019-05-01T11:47:23.573Z,33.30
2019-05-01T11:50:02.567Z,29.77
2019-05-01T11:52:42.200Z,29.13
2019-05-01T11:55:22.843Z,27.57
2019-05-01T11:57:59.030Z,27.33
2019-05-01T12:00:46.636Z,27.03
2019-05-01T12:03:22.899Z,28.77
2019-05-01T12:06:05.735Z,26.67
2019-05-01T12:08:48.366Z,28.33
2019-05-01T12:11:29.893Z,26.73
2019-05-01T12:14:09.161Z,27.57
2019-05-01T12:16:55.653Z,26.33
2019-05-01T12:19:37.112Z,27.03
2019-05-01T12:22:13.443Z,25.63
2019-05-01T12:24:52.555Z,27.17
2019-05-01T12:27:29.350Z,24.77
2019-05-01T12:30:11.070Z,24.37
2019-05-01T12:32:47.610Z,28.00
2019-05-01T12:35:23.875Z,25.93
2019-05-01T12:38:16.716Z,25.60
2019-05-01T12:41:22.173Z,25.57
2019-05-01T12:43:58.467Z,25.67
2019-05-01T12:46:36.485Z,27.23
2019-05-01T12:49:15.743Z,25.93
2019-05-01T12:51:55.592Z,27.07
2019-05-01T12:54:35.103Z,26.67
2019-05-01T12:57:11.441Z,26.80
2019-05-01T12:59:49.860Z,25.73
2019-05-01T13:02:36.502Z,26.13
2019-05-01T13:05:12.886Z,24.17
2019-05-01T13:07:54.164Z,26.90
2019-05-01T13:10:32.902Z,27.10
2019-05-01T13:13:11.112Z,26.10
2019-05-01T13:15:53.203Z,26.17
2019-05-01T13:18:35.449Z,28.03
2019-05-01T13:21:16.104Z,27.03
2019-05-01T13:23:52.364Z,26.57
2019-05-01T13:26:30.327Z,26.60
2019-05-01T13:29:17.077Z,28.10
2019-05-01T13:32:00.654Z,26.60
2019-05-01T13:34:36.889Z,26.67
2019-05-01T13:37:13.160Z,27.77
2019-05-01T13:39:49.446Z,27.07
2019-05-01T13:42:25.692Z,27.67
2019-05-01T13:45:01.952Z,28.13
2019-05-01T13:47:38.311Z,26.27
2019-05-01T13:50:14.596Z,28.07
2019-05-01T13:52:51.295Z,28.27
2019-05-01T13:55:27.732Z,27.07
2019-05-01T13:58:04.022Z,28.40
2019-05-01T14:00:40.173Z,30.57
2019-05-01T14:03:16.645Z,29.93
2019-05-01T14:05:52.876Z,29.70
2019-05-01T14:08:29.142Z,29.67
2019-05-01T14:11:05.417Z,29.20
2019-05-01T14:13:41.650Z,30.63
2019-05-01T14:16:17.993Z,29.00
2019-05-01T14:18:54.284Z,30.40
2019-05-01T14:21:40.196Z,28.90
2019-05-01T14:24:23.652Z,29.27
2019-05-01T14:26:59.978Z,29.23
2019-05-01T14:29:36.248Z,29.37
2019-05-01T14:32:12.483Z,27.83
2019-05-01T14:34:48.901Z,27.97
2019-05-01T14:37:29.788Z,29.83
2019-05-01T14:40:03.282Z,26.77
2019-05-01T14:42:39.672Z,28.23
2019-05-01T14:45:17.983Z,28.17
2019-05-01T14:48:02.631Z,29.10
2019-05-01T14:50:39.184Z,29.20
2019-05-01T14:53:18.332Z,30.33
2019-05-01T14:55:58.808Z,29.80
2019-05-01T14:58:41.106Z,29.60
2019-05-01T15:01:21.959Z,29.17
2019-05-01T15:04:08.189Z,28.90
2019-05-01T15:06:52.459Z,29.83
2019-05-01T15:09:45.629Z,29.13
2019-05-01T15:12:24.576Z,29.77
2019-05-01T15:15:09.996Z,30.67
2019-05-01T15:17:48.010Z,28.50
2019-05-01T15:20:27.107Z,28.20
2019-05-01T15:23:06.807Z,29.87
2019-05-01T15:25:43.475Z,29.90
2019-05-01T15:28:23.858Z,29.57
2019-05-01T15:31:03.770Z,29.33
2019-05-01T15:33:49.497Z,34.47
2019-05-01T15:36:26.133Z,30.73
2019-05-01T15:39:14.828Z,30.33
2019-05-01T15:42:04.594Z,28.30
2019-05-01T15:44:42.767Z,33.53
2019-05-01T15:47:19.072Z,30.40
2019-05-01T15:49:55.830Z,30.27
2019-05-01T15:52:32.223Z,31.90
2019-05-01T15:55:09.221Z,29.67
2019-05-01T15:57:45.557Z,29.70
2019-05-01T16:00:21.980Z,31.57
2019-05-01T16:02:58.274Z,32.57
2019-05-01T16:05:34.448Z,31.07
2019-05-01T16:08:10.771Z,30.87
2019-05-01T16:10:54.847Z,30.53
2019-05-01T16:13:31.289Z,31.27
2019-05-01T16:16:07.585Z,32.10
2019-05-01T16:18:43.944Z,30.90
2019-05-01T16:21:20.451Z,31.70
2019-05-01T16:23:56.692Z,32.80
2019-05-01T16:26:32.964Z,32.40
2019-05-01T16:29:09.750Z,31.47
2019-05-01T16:31:46.061Z,33.53
2019-05-01T16:34:22.383Z,34.47
2019-05-01T16:36:58.655Z,35.97
2019-05-01T16:39:39.301Z,30.37
2019-05-01T16:42:15.624Z,35.47
2019-05-01T16:44:51.764Z,30.67
2019-05-01T16:47:28.030Z,30.60
2019-05-01T16:50:06.998Z,31.87
2019-05-01T16:52:43.282Z,31.77
2019-05-01T16:55:19.566Z,33.40
2019-05-01T16:57:55.916Z,30.30
2019-05-01T17:00:58.672Z,31.43
2019-05-01T17:03:45.796Z,30.17
2019-05-01T17:06:40.068Z,29.23
2019-05-01T17:09:34.665Z,31.03
2019-05-01T17:12:11.801Z,29.57
2019-05-01T17:14:48.338Z,30.30
2019-05-01T17:17:24.704Z,30.70
2019-05-01T17:20:00.937Z,29.53
2019-05-01T17:22:37.234Z,30.57
2019-05-01T17:25:13.624Z,29.77
2019-05-01T17:27:50.059Z,30.47
2019-05-01T17:30:40.812Z,30.47
2019-05-01T17:33:20.775Z,35.23
2019-05-01T17:35:54.848Z,30.63
2019-05-01T17:38:31.186Z,29.33
2019-05-01T17:41:07.348Z,31.80
2019-05-01T17:43:44.648Z,30.67
2019-05-01T17:46:21.536Z,29.33
2019-05-01T17:48:57.814Z,30.23
2019-05-01T17:51:36.950Z,29.57
2019-05-01T17:54:13.296Z,30.07
2019-05-01T17:56:53.993Z,30.00
2019-05-01T17:59:27.538Z,34.43
2019-05-01T18:02:09.949Z,27.47
2019-05-01T18:04:47.601Z,30.20
2019-05-01T18:07:24.107Z,32.73
2019-05-01T18:10:00.631Z,35.63
2019-05-01T18:12:36.870Z,30.03
2019-05-01T18:15:13.385Z,29.50
2019-05-01T18:17:50.268Z,29.33
2019-05-01T18:20:29.504Z,29.10
2019-05-01T18:23:25.548Z,31.03
2019-05-01T18:26:12.271Z,30.53
2019-05-01T18:28:53.330Z,29.40
2019-05-01T18:31:31.778Z,31.27
2019-05-01T18:34:08.307Z,34.17
2019-05-01T18:37:02.503Z,32.27
2019-05-01T18:39:40.328Z,33.00
2019-05-01T18:42:19.582Z,35.00
2019-05-01T18:44:55.945Z,33.30
2019-05-01T18:47:32.297Z,35.33
2019-05-01T18:50:09.355Z,33.97
2019-05-01T18:52:45.633Z,32.70
2019-05-01T18:55:25.869Z,35.77
2019-05-01T18:57:59.761Z,33.37
2019-05-01T19:00:36.184Z,35.17
2019-05-01T19:03:12.479Z,32.70
2019-05-01T19:05:48.743Z,32.73
2019-05-01T19:08:24.904Z,36.63
2019-05-01T19:11:11.824Z,37.00
2019-05-01T19:13:39.348Z,35.17
2019-05-01T19:16:15.668Z,34.83
2019-05-01T19:18:51.924Z,34.07
2019-05-01T19:21:29.013Z,35.63
2019-05-01T19:24:05.996Z,33.93
2019-05-01T19:26:43.030Z,36.33
2019-05-01T19:29:20.408Z,34.53
2019-05-01T19:31:57.227Z,37.17
2019-05-01T19:34:33.490Z,38.20
2019-05-01T19:37:09.828Z,38.00
2019-05-01T19:39:48.946Z,37.43
2019-05-01T19:42:24.118Z,38.77
2019-05-01T19:45:00.392Z,41.63
2019-05-01T19:47:36.696Z,38.63
2019-05-01T19:50:14.183Z,38.97
2019-05-01T19:52:50.519Z,41.57
2019-05-01T19:55:26.763Z,40.70
2019-05-01T19:58:03.020Z,42.43
2019-05-01T20:00:51.653Z,41.80
2019-05-01T20:03:30.711Z,38.47
2019-05-01T20:06:08.221Z,42.83
2019-05-01T20:08:44.365Z,40.57
2019-05-01T20:11:20.574Z,44.77
2019-05-01T20:13:56.847Z,47.33
2019-05-01T20:16:33.144Z,45.70
2019-05-01T20:19:09.366Z,43.80
2019-05-01T20:21:45.711Z,48.57
2019-05-01T20:24:21.918Z,43.37
2019-05-01T20:26:58.179Z,51.23
2019-05-01T20:29:34.509Z,54.00
2019-05-01T20:32:10.838Z,48.30
2019-05-01T20:34:48.055Z,44.93
2019-05-01T20:37:25.002Z,47.30
2019-05-01T20:40:10.983Z,45.83
2019-05-01T20:42:39.292Z,47.87
2019-05-01T20:45:18.134Z,50.00
2019-05-01T20:47:54.383Z,48.60
2019-05-01T20:50:31.000Z,51.87
2019-05-01T20:53:07.274Z,46.07
2019-05-01T20:55:45.185Z,52.13
2019-05-01T20:58:22.110Z,54.23
2019-05-01T21:01:00.018Z,52.63
2019-05-01T21:03:37.894Z,54.63
2019-05-01T21:06:15.870Z,52.70
2019-05-01T21:08:53.664Z,51.40
2019-05-01T21:11:34.208Z,52.63
2019-05-01T21:14:19.736Z,47.53
2019-05-01T21:16:48.273Z,45.97
2019-05-01T21:19:25.747Z,48.43
2019-05-01T21:22:04.053Z,52.17
2019-05-01T21:24:40.394Z,51.03
2019-05-01T21:27:16.545Z,50.33
2019-05-01T21:29:53.382Z,49.53
2019-05-01T21:32:29.798Z,54.53
2019-05-01T21:35:06.067Z,48.33
2019-05-01T21:37:42.203Z,52.50
2019-05-01T21:40:18.475Z,55.33
2019-05-01T21:42:55.882Z,48.13
2019-05-01T21:45:33.079Z,56.93
2019-05-01T21:48:09.364Z,54.90
2019-05-01T21:50:45.611Z,54.60
2019-05-01T21:53:23.799Z,51.90
2019-05-01T21:56:04.421Z,51.07
2019-05-01T21:58:37.601Z,53.23
2019-05-01T22:01:14.017Z,53.00
2019-05-01T22:03:52.539Z,51.40
2019-05-01T22:06:28.399Z,52.07
2019-05-01T22:09:10.599Z,58.47
2019-05-01T22:11:46.105Z,58.97
2019-05-01T22:14:30.973Z,62.90
2019-05-01T22:17:06.440Z,61.93
2019-05-01T22:19:42.837Z,63.80
2019-05-01T22:22:38.866Z,63.13
2019-05-01T22:25:25.383Z,60.90
2019-05-01T22:28:03.285Z,62.73
2019-05-01T22:30:46.403Z,65.27
2019-05-01T22:33:21.554Z,68.37
2019-05-01T22:35:57.845Z,73.47
2019-05-01T22:38:34.105Z,76.97
2019-05-01T22:41:11.799Z,83.73
2019-05-01T22:43:48.045Z,74.87
2019-05-01T22:46:25.890Z,88.87
2019-05-01T22:49:02.127Z,74.23
2019-05-01T22:51:38.260Z,68.63
2019-05-01T22:54:14.485Z,69.87
2019-05-01T22:56:50.732Z,69.40
2019-05-01T22:59:26.871Z,69.83
2019-05-01T23:02:04.675Z,74.07
2019-05-01T23:04:40.885Z,66.47
2019-05-01T23:07:18.559Z,67.23
2019-05-01T23:09:54.940Z,67.00
2019-05-01T23:12:33.056Z,64.83
2019-05-01T23:15:14.699Z,71.03
2019-05-01T23:17:51.041Z,75.83
2019-05-01T23:20:27.181Z,69.33
2019-05-01T23:23:03.370Z,72.03
2019-05-01T23:25:41.147Z,73.10
2019-05-01T23:28:17.474Z,69.47
2019-05-01T23:30:53.684Z,65.47
2019-05-01T23:33:29.952Z,72.23
2019-05-01T23:36:06.094Z,75.63
2019-05-01T23:38:42.426Z,78.23
2019-05-01T23:41:18.560Z,81.60
2019-05-01T23:43:58.143Z,89.03
2019-05-01T23:46:32.645Z,81.77
2019-05-01T23:49:08.861Z,85.60
2019-05-01T23:51:45.078Z,82.47
2019-05-01T23:54:21.295Z,85.23
2019-05-01T23:56:57.402Z,77.57
2019-05-01T23:59:33.646Z,74.70
